createdAt,value
2023-01-05T00:00:27.054Z,9.76
2023-01-05T00:01:26.866Z,9.76
2023-01-05T00:02:26.940Z,9.77
2023-01-05T00:03:26.880Z,9.80
2023-01-05T00:04:26.919Z,9.80
2023-01-05T00:05:26.847Z,9.82
2023-01-05T00:06:27.082Z,9.83
2023-01-05T00:07:26.816Z,9.84
2023-01-05T00:08:30.260Z,9.86
2023-01-05T00:09:26.806Z,9.86
2023-01-05T00:10:26.804Z,9.86
2023-01-05T00:11:26.788Z,9.87
2023-01-05T00:12:26.794Z,9.89
2023-01-05T00:13:26.777Z,9.89
2023-01-05T00:14:26.860Z,9.92
2023-01-05T00:15:26.799Z,9.94
2023-01-05T00:16:26.783Z,9.94
2023-01-05T00:17:26.767Z,9.98
2023-01-05T00:18:26.739Z,9.99
2023-01-05T00:19:26.699Z,9.99
2023-01-05T00:20:26.722Z,9.97
2023-01-05T00:21:26.677Z,9.98
2023-01-05T00:22:26.718Z,9.98
2023-01-05T00:23:26.753Z,9.98
2023-01-05T00:24:26.649Z,9.98
2023-01-05T00:25:26.639Z,9.97
2023-01-05T00:26:26.619Z,9.97
2023-01-05T00:27:26.630Z,9.95
2023-01-05T00:28:26.645Z,9.97
2023-01-05T00:29:26.610Z,9.94
2023-01-05T00:30:26.615Z,9.95
2023-01-05T00:31:26.638Z,9.94
2023-01-05T00:32:26.587Z,9.94
2023-01-05T00:33:26.595Z,9.92
2023-01-05T00:34:26.575Z,9.95
2023-01-05T00:35:26.539Z,9.94
2023-01-05T00:36:26.553Z,9.92
2023-01-05T00:37:26.514Z,9.92
2023-01-05T00:38:26.506Z,9.92
2023-01-05T00:39:26.529Z,9.94
2023-01-05T00:40:26.579Z,9.94
2023-01-05T00:41:26.485Z,9.94
2023-01-05T00:42:26.484Z,9.94
2023-01-05T00:43:26.600Z,9.89
2023-01-05T00:44:26.453Z,9.89
2023-01-05T00:45:26.557Z,9.87
2023-01-05T00:46:26.479Z,9.86
2023-01-05T00:47:26.432Z,9.86
2023-01-05T00:48:26.408Z,9.86
2023-01-05T00:49:26.413Z,9.84
2023-01-05T00:50:26.387Z,9.86
2023-01-05T00:51:26.411Z,9.87
2023-01-05T00:52:26.352Z,9.87
2023-01-05T00:53:26.405Z,9.86
2023-01-05T00:54:26.335Z,9.89
2023-01-05T00:55:26.371Z,9.89
2023-01-05T00:56:26.327Z,9.89
2023-01-05T00:57:26.349Z,9.87
2023-01-05T00:58:26.295Z,9.87
2023-01-05T00:59:26.308Z,9.87
2023-01-05T01:00:26.295Z,9.87
2023-01-05T01:01:26.403Z,9.84
2023-01-05T01:02:26.388Z,9.86
2023-01-05T01:03:26.343Z,9.87
2023-01-05T01:04:26.245Z,9.84
2023-01-05T01:05:26.320Z,9.84
2023-01-05T01:06:26.241Z,9.83
2023-01-05T01:07:26.231Z,9.83
2023-01-05T01:08:26.210Z,9.84
2023-01-05T01:09:26.204Z,9.86
2023-01-05T01:10:26.167Z,9.86
2023-01-05T01:11:26.186Z,9.86
2023-01-05T01:12:26.203Z,9.86
2023-01-05T01:13:26.169Z,9.84
2023-01-05T01:14:26.145Z,9.84
2023-01-05T01:15:26.140Z,9.87
2023-01-05T01:16:26.158Z,9.87
2023-01-05T01:17:26.120Z,9.87
2023-01-05T01:18:26.113Z,9.89
2023-01-05T01:19:26.104Z,9.89
2023-01-05T01:20:26.080Z,9.89
2023-01-05T01:21:26.073Z,9.84
2023-01-05T01:22:26.063Z,9.84
2023-01-05T01:23:26.081Z,9.84
2023-01-05T01:24:26.070Z,9.80
2023-01-05T01:25:26.072Z,9.79
2023-01-05T01:26:26.030Z,9.79
2023-01-05T01:27:26.033Z,9.80
2023-01-05T01:28:26.007Z,9.80
2023-01-05T01:29:26.016Z,9.77
2023-01-05T01:30:26.031Z,9.77
2023-01-05T01:31:25.967Z,9.79
2023-01-05T01:32:25.962Z,9.80
2023-01-05T01:33:25.940Z,9.80
2023-01-05T01:34:25.978Z,9.80
2023-01-05T01:35:25.945Z,9.82
2023-01-05T01:36:25.954Z,9.82
2023-01-05T01:37:25.923Z,9.82
2023-01-05T01:38:25.936Z,9.82
2023-01-05T01:39:25.957Z,9.80
2023-01-05T01:40:25.918Z,9.80
2023-01-05T01:41:25.920Z,9.79
2023-01-05T01:42:25.872Z,9.79
2023-01-05T01:43:25.865Z,9.80
2023-01-05T01:44:25.854Z,9.82
2023-01-05T01:45:25.828Z,9.82
2023-01-05T01:46:25.957Z,9.82
2023-01-05T01:47:25.814Z,9.82
2023-01-05T01:48:25.809Z,9.82
2023-01-05T01:49:25.805Z,9.83
2023-01-05T01:50:25.775Z,9.82
2023-01-05T01:51:25.797Z,9.82
2023-01-05T01:52:25.793Z,9.80
2023-01-05T01:53:25.763Z,9.80
2023-01-05T01:54:25.735Z,9.77
2023-01-05T01:55:25.718Z,9.77
2023-01-05T01:56:25.728Z,9.79
2023-01-05T01:57:25.726Z,9.77
2023-01-05T01:58:25.703Z,9.76
2023-01-05T01:59:25.701Z,9.74
2023-01-05T02:00:25.672Z,9.76
2023-01-05T02:01:25.784Z,9.76
2023-01-05T02:02:25.869Z,9.77
2023-01-05T02:03:25.665Z,9.79
2023-01-05T02:04:25.690Z,9.80
2023-01-05T02:05:25.649Z,9.80
2023-01-05T02:06:25.611Z,9.77
2023-01-05T02:07:25.653Z,9.77
2023-01-05T02:08:25.597Z,9.80
2023-01-05T02:09:25.592Z,9.82
2023-01-05T02:10:25.589Z,9.83
2023-01-05T02:11:25.560Z,9.82
2023-01-05T02:12:25.552Z,9.80
2023-01-05T02:13:31.237Z,9.80
2023-01-05T02:14:25.552Z,9.82
2023-01-05T02:15:25.618Z,9.83
2023-01-05T02:16:25.648Z,9.83
2023-01-05T02:17:25.515Z,9.83
2023-01-05T02:18:25.506Z,9.83
2023-01-05T02:19:25.513Z,9.82
2023-01-05T02:20:25.472Z,9.82
2023-01-05T02:21:25.509Z,9.79
2023-01-05T02:22:25.464Z,9.77
2023-01-05T02:23:25.487Z,9.77
2023-01-05T02:24:25.424Z,9.82
2023-01-05T02:25:25.463Z,9.87
2023-01-05T02:26:25.409Z,9.89
2023-01-05T02:27:25.449Z,9.92
2023-01-05T02:28:25.400Z,9.92
2023-01-05T02:29:25.401Z,9.97
2023-01-05T02:30:25.471Z,9.99
2023-01-05T02:31:25.480Z,10.01
2023-01-05T02:32:25.368Z,10.01
2023-01-05T02:33:25.388Z,10.01
2023-01-05T02:34:25.335Z,10.01
2023-01-05T02:35:25.405Z,10.01
2023-01-05T02:36:28.659Z,10.01
2023-01-05T02:37:25.314Z,9.99
2023-01-05T02:38:25.309Z,9.98
2023-01-05T02:39:25.312Z,9.99
2023-01-05T02:40:25.261Z,9.98
2023-01-05T02:41:25.253Z,9.98
2023-01-05T02:42:25.238Z,9.97
2023-01-05T02:43:25.252Z,9.99
2023-01-05T02:44:25.251Z,9.98
2023-01-05T02:45:25.296Z,9.98
2023-01-05T02:46:25.249Z,9.95
2023-01-05T02:47:25.243Z,9.98
2023-01-05T02:48:25.195Z,9.97
2023-01-05T02:49:25.200Z,9.98
2023-01-05T02:50:25.191Z,9.98
2023-01-05T02:51:25.159Z,9.99
2023-01-05T02:52:25.138Z,9.98
2023-01-05T02:53:25.166Z,9.97
2023-01-05T02:54:25.124Z,9.97
2023-01-05T02:55:25.211Z,9.98
2023-01-05T02:56:25.106Z,9.99
2023-01-05T02:57:25.090Z,9.98
2023-01-05T02:58:25.136Z,9.95
2023-01-05T02:59:25.096Z,9.94
2023-01-05T03:00:25.071Z,9.92
2023-01-05T03:01:25.236Z,9.91
2023-01-05T03:02:25.261Z,9.86
2023-01-05T03:03:25.137Z,9.84
2023-01-05T03:04:25.037Z,9.86
2023-01-05T03:05:25.034Z,9.83
2023-01-05T03:06:25.014Z,9.80
2023-01-05T03:07:25.078Z,9.80
2023-01-05T03:08:32.063Z,9.79
2023-01-05T03:09:24.990Z,9.74
2023-01-05T03:10:25.056Z,9.73
2023-01-05T03:11:25.022Z,9.73
2023-01-05T03:12:24.966Z,9.72
2023-01-05T03:13:25.006Z,9.69
2023-01-05T03:14:24.954Z,9.68
2023-01-05T03:15:24.973Z,9.66
2023-01-05T03:16:25.101Z,9.64
2023-01-05T03:17:24.898Z,9.62
2023-01-05T03:18:24.884Z,9.59
2023-01-05T03:19:24.882Z,9.56
2023-01-05T03:20:24.874Z,9.55
2023-01-05T03:21:24.856Z,9.54
2023-01-05T03:22:24.877Z,9.48
2023-01-05T03:23:24.859Z,9.44
2023-01-05T03:24:24.838Z,9.46
2023-01-05T03:25:24.823Z,9.43
2023-01-05T03:26:24.811Z,9.43
2023-01-05T03:27:24.810Z,9.44
2023-01-05T03:28:24.827Z,9.47
2023-01-05T03:29:24.799Z,9.48
2023-01-05T03:30:24.789Z,9.47
2023-01-05T03:31:24.901Z,9.47
2023-01-05T03:32:24.754Z,9.44
2023-01-05T03:33:24.731Z,9.40
2023-01-05T03:34:24.763Z,9.37
2023-01-05T03:35:24.719Z,9.37
2023-01-05T03:36:24.706Z,9.36
2023-01-05T03:37:24.688Z,9.37
2023-01-05T03:38:24.695Z,9.37
2023-01-05T03:39:24.678Z,9.39
2023-01-05T03:40:24.718Z,9.39
2023-01-05T03:41:24.666Z,9.39
2023-01-05T03:42:24.666Z,9.41
2023-01-05T03:43:24.659Z,9.43
2023-01-05T03:44:24.630Z,9.43
2023-01-05T03:45:24.626Z,9.44
2023-01-05T03:46:24.745Z,9.46
2023-01-05T03:47:24.587Z,9.47
2023-01-05T03:48:24.587Z,9.47
2023-01-05T03:49:24.578Z,9.50
2023-01-05T03:50:24.586Z,9.54
2023-01-05T03:51:24.583Z,9.56
2023-01-05T03:52:24.578Z,9.56
2023-01-05T03:53:24.540Z,9.58
2023-01-05T03:54:24.529Z,9.58
2023-01-05T03:55:24.525Z,9.56
2023-01-05T03:56:24.497Z,9.56
2023-01-05T03:57:24.500Z,9.55
2023-01-05T03:58:24.503Z,9.56
2023-01-05T03:59:24.483Z,9.54
2023-01-05T04:00:24.452Z,9.54
2023-01-05T04:01:24.588Z,9.54
2023-01-05T04:02:24.620Z,9.51
2023-01-05T04:03:31.063Z,9.50
2023-01-05T04:04:24.468Z,9.48
2023-01-05T04:05:24.436Z,9.48
2023-01-05T04:06:24.429Z,9.48
2023-01-05T04:07:24.409Z,9.48
2023-01-05T04:08:24.383Z,9.48
2023-01-05T04:09:24.404Z,9.47
2023-01-05T04:10:24.363Z,9.48
2023-01-05T04:11:24.370Z,9.48
2023-01-05T04:12:24.344Z,9.48
2023-01-05T04:13:24.337Z,9.48
2023-01-05T04:14:24.310Z,9.47
2023-01-05T04:15:24.314Z,9.46
2023-01-05T04:16:24.345Z,9.48
2023-01-05T04:17:24.603Z,9.48
2023-01-05T04:18:24.283Z,9.47
2023-01-05T04:19:24.293Z,9.47
2023-01-05T04:20:24.327Z,9.47
2023-01-05T04:21:24.279Z,9.47
2023-01-05T04:22:27.396Z,9.50
2023-01-05T04:23:24.280Z,9.51
2023-01-05T04:24:24.227Z,9.54
2023-01-05T04:25:24.206Z,9.51
2023-01-05T04:26:24.202Z,9.50
2023-01-05T04:27:24.199Z,9.54
2023-01-05T04:28:24.195Z,9.51
2023-01-05T04:29:24.215Z,9.56
2023-01-05T04:30:24.176Z,9.56
2023-01-05T04:31:24.266Z,9.56
2023-01-05T04:32:24.155Z,9.58
2023-01-05T04:33:24.151Z,9.58
2023-01-05T04:34:24.166Z,9.58
2023-01-05T04:35:24.123Z,9.59
2023-01-05T04:36:24.107Z,9.58
2023-01-05T04:37:24.079Z,9.56
2023-01-05T04:38:24.069Z,9.56
2023-01-05T04:39:24.072Z,9.59
2023-01-05T04:40:24.086Z,9.61
2023-01-05T04:41:24.055Z,9.64
2023-01-05T04:42:24.044Z,9.65
2023-01-05T04:43:24.037Z,9.69
2023-01-05T04:44:24.048Z,9.73
2023-01-05T04:45:24.027Z,9.72
2023-01-05T04:46:24.086Z,9.72
2023-01-05T04:47:24.011Z,9.72
2023-01-05T04:48:23.988Z,9.69
2023-01-05T04:49:23.993Z,9.72
2023-01-05T04:50:23.982Z,9.72
2023-01-05T04:51:23.944Z,9.73
2023-01-05T04:52:23.951Z,9.76
2023-01-05T04:53:23.948Z,9.76
2023-01-05T04:54:23.917Z,9.77
2023-01-05T04:55:23.915Z,9.74
2023-01-05T04:56:23.910Z,9.74
2023-01-05T04:57:23.914Z,9.74
2023-01-05T04:58:23.904Z,9.74
2023-01-05T04:59:23.856Z,9.73
2023-01-05T05:00:23.851Z,9.74
2023-01-05T05:01:23.907Z,9.72
2023-01-05T05:02:24.019Z,9.73
2023-01-05T05:03:25.712Z,9.72
2023-01-05T05:04:23.854Z,9.72
2023-01-05T05:05:23.799Z,9.69
2023-01-05T05:06:23.790Z,9.68
2023-01-05T05:07:23.822Z,9.69
2023-01-05T05:08:23.791Z,9.69
2023-01-05T05:09:23.775Z,9.68
2023-01-05T05:10:23.796Z,9.68
2023-01-05T05:11:23.754Z,9.68
2023-01-05T05:12:23.758Z,9.68
2023-01-05T05:13:23.731Z,9.68
2023-01-05T05:14:23.723Z,9.69
2023-01-05T05:15:23.712Z,9.69
2023-01-05T05:16:24.115Z,9.68
2023-01-05T05:17:23.684Z,9.65
2023-01-05T05:18:23.670Z,9.65
2023-01-05T05:19:23.658Z,9.65
2023-01-05T05:20:23.656Z,9.64
2023-01-05T05:21:23.647Z,9.61
2023-01-05T05:22:23.665Z,9.61
2023-01-05T05:23:23.627Z,9.59
2023-01-05T05:24:23.625Z,9.58
2023-01-05T05:25:23.621Z,9.59
2023-01-05T05:26:23.597Z,9.59
2023-01-05T05:27:23.574Z,9.59
2023-01-05T05:28:23.616Z,9.59
2023-01-05T05:29:23.569Z,9.61
2023-01-05T05:30:23.554Z,9.62
2023-01-05T05:31:23.609Z,9.62
2023-01-05T05:32:23.548Z,9.64
2023-01-05T05:33:23.532Z,9.65
2023-01-05T05:34:23.537Z,9.64
2023-01-05T05:35:23.507Z,9.65
2023-01-05T05:36:23.503Z,9.66
2023-01-05T05:37:23.489Z,9.65
2023-01-05T05:38:23.492Z,9.64
2023-01-05T05:39:23.450Z,9.62
2023-01-05T05:40:23.481Z,9.61
2023-01-05T05:41:23.459Z,9.59
2023-01-05T05:42:23.434Z,9.61
2023-01-05T05:43:23.424Z,9.62
2023-01-05T05:44:23.483Z,9.65
2023-01-05T05:45:23.410Z,9.65
2023-01-05T05:46:23.456Z,9.68
2023-01-05T05:47:23.395Z,9.69
2023-01-05T05:48:23.373Z,9.68
2023-01-05T05:49:23.377Z,9.69
2023-01-05T05:50:23.374Z,9.68
2023-01-05T05:51:23.360Z,9.69
2023-01-05T05:52:23.384Z,9.69
2023-01-05T05:53:23.331Z,9.69
2023-01-05T05:54:23.314Z,9.68
2023-01-05T05:55:23.298Z,9.68
2023-01-05T05:56:23.306Z,9.66
2023-01-05T05:57:23.278Z,9.65
2023-01-05T05:58:23.307Z,9.65
2023-01-05T05:59:23.272Z,9.64
2023-01-05T06:00:23.275Z,9.61
2023-01-05T06:01:23.271Z,9.59
2023-01-05T06:02:23.307Z,9.58
2023-01-05T06:03:23.308Z,9.55
2023-01-05T06:04:23.244Z,9.55
2023-01-05T06:05:23.194Z,9.54
2023-01-05T06:06:23.200Z,9.48
2023-01-05T06:07:23.182Z,9.46
2023-01-05T06:08:23.177Z,9.46
2023-01-05T06:09:23.147Z,9.44
2023-01-05T06:10:23.168Z,9.47
2023-01-05T06:11:23.146Z,9.47
2023-01-05T06:12:23.146Z,9.47
2023-01-05T06:13:23.121Z,9.47
2023-01-05T06:14:23.109Z,9.47
2023-01-05T06:15:23.115Z,9.46
2023-01-05T06:16:23.226Z,9.48
2023-01-05T06:17:23.097Z,9.48
2023-01-05T06:18:23.097Z,9.50
2023-01-05T06:19:23.055Z,9.51
2023-01-05T06:20:23.063Z,9.50
2023-01-05T06:21:23.039Z,9.54
2023-01-05T06:22:23.050Z,9.51
2023-01-05T06:23:23.001Z,9.51
2023-01-05T06:24:23.015Z,9.51
2023-01-05T06:25:22.994Z,9.51
2023-01-05T06:26:22.973Z,9.50
2023-01-05T06:27:23.019Z,9.51
2023-01-05T06:28:22.972Z,9.54
2023-01-05T06:29:22.959Z,9.54
2023-01-05T06:30:22.948Z,9.54
2023-01-05T06:31:22.972Z,9.55
2023-01-05T06:32:22.921Z,9.54
2023-01-05T06:33:22.955Z,9.54
2023-01-05T06:34:22.902Z,9.51
2023-01-05T06:35:22.905Z,9.51
2023-01-05T06:36:22.896Z,9.50
2023-01-05T06:37:22.925Z,9.50
2023-01-05T06:38:22.863Z,9.48
2023-01-05T06:39:22.879Z,9.50
2023-01-05T06:40:22.841Z,9.50
2023-01-05T06:41:22.839Z,9.54
2023-01-05T06:42:23.716Z,9.55
2023-01-05T06:43:22.801Z,9.51
2023-01-05T06:44:22.808Z,9.51
2023-01-05T06:45:22.800Z,9.51
2023-01-05T06:46:22.867Z,9.51
2023-01-05T06:47:22.764Z,9.54
2023-01-05T06:48:22.797Z,9.55
2023-01-05T06:49:22.749Z,9.54
2023-01-05T06:50:22.741Z,9.54
2023-01-05T06:51:22.734Z,9.54
2023-01-05T06:52:22.736Z,9.50
2023-01-05T06:53:22.718Z,9.50
2023-01-05T06:54:22.735Z,9.50
2023-01-05T06:55:22.693Z,9.48
2023-01-05T06:56:22.699Z,9.48
2023-01-05T06:57:22.676Z,9.47
2023-01-05T06:58:22.681Z,9.48
2023-01-05T06:59:22.672Z,9.48
2023-01-05T07:00:22.634Z,9.47
2023-01-05T07:01:22.737Z,9.47
2023-01-05T07:02:22.692Z,9.48
2023-01-05T07:03:22.610Z,9.47
2023-01-05T07:04:22.670Z,9.47
2023-01-05T07:05:22.640Z,9.48
2023-01-05T07:06:22.583Z,9.48
2023-01-05T07:07:22.601Z,9.48
2023-01-05T07:08:22.574Z,9.47
2023-01-05T07:09:22.565Z,9.47
2023-01-05T07:10:22.567Z,9.48
2023-01-05T07:11:22.564Z,9.46
2023-01-05T07:12:22.512Z,9.46
2023-01-05T07:13:22.522Z,9.44
2023-01-05T07:14:22.521Z,9.46
2023-01-05T07:15:22.476Z,9.47
2023-01-05T07:16:22.545Z,9.47
2023-01-05T07:17:22.479Z,9.50
2023-01-05T07:18:22.453Z,9.50
2023-01-05T07:19:22.441Z,9.48
2023-01-05T07:20:22.427Z,9.48
2023-01-05T07:21:22.435Z,9.50
2023-01-05T07:22:22.435Z,9.51
2023-01-05T07:23:22.442Z,9.51
2023-01-05T07:24:22.408Z,9.51
2023-01-05T07:25:22.402Z,9.51
2023-01-05T07:26:22.400Z,9.51
2023-01-05T07:27:22.395Z,9.51
2023-01-05T07:28:22.423Z,9.51
2023-01-05T07:29:22.346Z,9.50
2023-01-05T07:30:22.357Z,9.48
2023-01-05T07:31:22.356Z,9.47
2023-01-05T07:32:22.317Z,9.46
2023-01-05T07:33:22.306Z,9.44
2023-01-05T07:34:22.324Z,9.44
2023-01-05T07:35:22.296Z,9.44
2023-01-05T07:36:22.283Z,9.41
2023-01-05T07:37:22.293Z,9.36
2023-01-05T07:38:22.287Z,9.36
2023-01-05T07:39:22.243Z,9.34
2023-01-05T07:40:22.267Z,9.31
2023-01-05T07:41:22.235Z,9.31
2023-01-05T07:42:22.235Z,9.29
2023-01-05T07:43:22.226Z,9.29
2023-01-05T07:44:22.203Z,9.28
2023-01-05T07:45:22.391Z,9.26
2023-01-05T07:46:22.245Z,9.28
2023-01-05T07:47:22.169Z,9.28
2023-01-05T07:48:23.754Z,9.31
2023-01-05T07:49:22.159Z,9.32
2023-01-05T07:50:22.170Z,9.36
2023-01-05T07:51:22.153Z,9.37
2023-01-05T07:52:22.123Z,9.39
2023-01-05T07:53:22.103Z,9.36
2023-01-05T07:54:22.109Z,9.36
2023-01-05T07:55:22.089Z,9.34
2023-01-05T07:56:22.074Z,9.36
2023-01-05T07:57:22.091Z,9.34
2023-01-05T07:58:22.060Z,9.34
2023-01-05T07:59:22.038Z,9.34
2023-01-05T08:00:22.082Z,9.31
2023-01-05T08:01:22.167Z,9.31
2023-01-05T08:02:22.111Z,9.31
2023-01-05T08:03:22.036Z,9.31
2023-01-05T08:04:22.037Z,9.29
2023-01-05T08:05:21.992Z,9.29
2023-01-05T08:06:22.002Z,9.28
2023-01-05T08:07:21.953Z,9.25
2023-01-05T08:08:24.517Z,9.22
2023-01-05T08:09:21.938Z,9.23
2023-01-05T08:10:21.935Z,9.23
2023-01-05T08:11:21.937Z,9.22
2023-01-05T08:12:21.936Z,9.23
2023-01-05T08:13:21.903Z,9.25
2023-01-05T08:14:21.938Z,9.25
2023-01-05T08:15:21.895Z,9.25
2023-01-05T08:16:21.918Z,9.26
2023-01-05T08:17:21.879Z,9.29
2023-01-05T08:18:21.879Z,9.31
2023-01-05T08:19:21.841Z,9.32
2023-01-05T08:20:21.845Z,9.31
2023-01-05T08:21:21.828Z,9.31
2023-01-05T08:22:21.838Z,9.29
2023-01-05T08:23:26.249Z,9.28
2023-01-05T08:24:21.798Z,9.28
2023-01-05T08:25:21.800Z,9.31
2023-01-05T08:26:21.811Z,9.29
2023-01-05T08:27:21.829Z,9.26
2023-01-05T08:28:21.786Z,9.25
2023-01-05T08:29:21.762Z,9.25
2023-01-05T08:30:21.733Z,9.22
2023-01-05T08:31:22.106Z,9.21
2023-01-05T08:32:21.711Z,9.18
2023-01-05T08:33:21.702Z,9.18
2023-01-05T08:34:21.702Z,9.18
2023-01-05T08:35:21.671Z,9.18
2023-01-05T08:36:21.671Z,9.19
2023-01-05T08:37:21.688Z,9.18
2023-01-05T08:38:21.657Z,9.18
2023-01-05T08:39:21.643Z,9.21
2023-01-05T08:40:21.642Z,9.21
2023-01-05T08:41:21.666Z,9.22
2023-01-05T08:42:21.667Z,9.25
2023-01-05T08:43:21.593Z,9.26
2023-01-05T08:44:21.586Z,9.26
2023-01-05T08:45:21.580Z,9.29
2023-01-05T08:46:21.618Z,9.31
2023-01-05T08:47:26.464Z,9.32
2023-01-05T08:48:21.601Z,9.34
2023-01-05T08:49:21.536Z,9.31
2023-01-05T08:50:21.525Z,9.31
2023-01-05T08:51:21.520Z,9.31
2023-01-05T08:52:21.519Z,9.31
2023-01-05T08:53:21.526Z,9.28
2023-01-05T08:54:21.530Z,9.28
2023-01-05T08:55:21.494Z,9.26
2023-01-05T08:56:21.506Z,9.26
2023-01-05T08:57:21.501Z,9.23
2023-01-05T08:58:21.460Z,9.22
2023-01-05T08:59:21.490Z,9.23
2023-01-05T09:00:21.430Z,9.22
2023-01-05T09:01:21.536Z,9.19
2023-01-05T09:02:25.482Z,9.18
2023-01-05T09:03:21.425Z,9.19
2023-01-05T09:04:21.435Z,9.18
2023-01-05T09:05:21.377Z,9.14
2023-01-05T09:06:21.366Z,9.16
2023-01-05T09:07:21.354Z,9.18
2023-01-05T09:08:21.350Z,9.18
2023-01-05T09:09:21.335Z,9.18
2023-01-05T09:10:21.358Z,9.19
2023-01-05T09:11:21.337Z,9.21
2023-01-05T09:12:21.311Z,9.23
2023-01-05T09:13:21.312Z,9.23
2023-01-05T09:14:21.303Z,9.22
2023-01-05T09:15:21.307Z,9.22
2023-01-05T09:17:21.270Z,9.13
2023-01-05T09:18:21.236Z,9.13
2023-01-05T09:19:21.246Z,9.13
2023-01-05T09:20:21.236Z,9.13
2023-01-05T09:21:21.249Z,9.16
2023-01-05T09:22:21.195Z,9.14
2023-01-05T09:23:21.200Z,9.16
2023-01-05T09:24:21.198Z,9.14
2023-01-05T09:25:21.192Z,9.16
2023-01-05T09:26:21.168Z,9.18
2023-01-05T09:27:21.244Z,9.16
2023-01-05T09:28:21.156Z,9.14
2023-01-05T09:29:21.142Z,9.16
2023-01-05T09:30:21.212Z,9.18
2023-01-05T09:31:21.175Z,9.18
2023-01-05T09:32:21.092Z,9.18
2023-01-05T09:33:21.417Z,9.18
2023-01-05T09:34:21.083Z,9.21
2023-01-05T09:35:21.080Z,9.22
2023-01-05T09:36:21.068Z,9.22
2023-01-05T09:37:21.062Z,9.23
2023-01-05T09:38:21.034Z,9.23
2023-01-05T09:39:21.073Z,9.23
2023-01-05T09:40:21.063Z,9.22
2023-01-05T09:41:21.038Z,9.23
2023-01-05T09:42:21.016Z,9.21
2023-01-05T09:43:20.992Z,9.18
2023-01-05T09:44:20.982Z,9.18
2023-01-05T09:45:21.004Z,9.19
2023-01-05T09:46:21.043Z,9.18
2023-01-05T09:47:20.978Z,9.18
2023-01-05T09:48:20.942Z,9.18
2023-01-05T09:49:20.986Z,9.14
2023-01-05T09:50:21.011Z,9.08
2023-01-05T09:51:20.993Z,9.08
2023-01-05T09:52:21.001Z,9.04
2023-01-05T09:53:20.913Z,9.06
2023-01-05T09:54:20.911Z,9.08
2023-01-05T09:55:20.881Z,9.10
2023-01-05T09:56:42.297Z,9.08
2023-01-05T09:57:20.870Z,9.08
2023-01-05T09:58:26.269Z,9.11
2023-01-05T09:59:20.842Z,9.10
2023-01-05T10:00:20.908Z,9.10
2023-01-05T10:01:20.845Z,9.14
2023-01-05T10:02:20.800Z,9.13
2023-01-05T10:03:53.660Z,9.16
2023-01-05T10:04:24.072Z,9.14
2023-01-05T10:05:20.962Z,9.14
2023-01-05T10:06:20.770Z,9.16
2023-01-05T10:07:20.778Z,9.18
2023-01-05T10:08:20.744Z,9.18
2023-01-05T10:09:20.739Z,9.21
2023-01-05T10:10:26.488Z,9.22
2023-01-05T10:11:20.706Z,9.25
2023-01-05T10:12:20.693Z,9.28
2023-01-05T10:13:20.694Z,9.29
2023-01-05T10:14:20.668Z,9.29
2023-01-05T10:15:20.685Z,9.31
2023-01-05T10:16:23.420Z,9.31
2023-01-05T10:18:20.675Z,9.34
2023-01-05T10:19:20.835Z,9.34
2023-01-05T10:20:20.681Z,9.36
2023-01-05T10:21:20.602Z,9.39
2023-01-05T10:22:20.583Z,9.39
2023-01-05T10:23:20.598Z,9.41
2023-01-05T10:24:20.624Z,9.41
2023-01-05T10:25:20.598Z,9.44
2023-01-05T10:26:20.548Z,9.46
2023-01-05T10:27:25.637Z,9.46
2023-01-05T10:28:20.546Z,9.48
2023-01-05T10:29:20.544Z,9.51
2023-01-05T10:30:20.532Z,9.54
2023-01-05T10:31:20.585Z,9.55
2023-01-05T10:32:20.508Z,9.55
2023-01-05T10:33:38.989Z,9.56
2023-01-05T10:34:20.476Z,9.56
2023-01-05T10:35:42.276Z,9.58
2023-01-05T10:36:41.312Z,9.59
2023-01-05T10:37:20.444Z,9.54
2023-01-05T10:38:20.437Z,9.46
2023-01-05T10:39:20.451Z,9.44
2023-01-05T10:40:20.441Z,9.41
2023-01-05T10:41:20.399Z,9.43
2023-01-05T10:42:20.394Z,9.43
2023-01-05T10:43:20.400Z,9.43
2023-01-05T10:44:20.384Z,9.44
2023-01-05T10:45:20.398Z,9.48
2023-01-05T10:46:32.534Z,9.55
2023-01-05T10:47:20.383Z,9.58
2023-01-05T10:48:20.355Z,9.62
2023-01-05T10:49:20.339Z,9.65
2023-01-05T10:50:20.306Z,9.66
2023-01-05T10:51:20.324Z,9.69
2023-01-05T10:52:20.295Z,9.66
2023-01-05T10:53:20.298Z,9.62
2023-01-05T10:54:20.300Z,9.61
2023-01-05T10:55:20.274Z,9.55
2023-01-05T10:56:20.260Z,9.54
2023-01-05T10:57:20.261Z,9.46
2023-01-05T10:58:20.231Z,9.39
2023-01-05T10:59:20.307Z,9.36
2023-01-05T11:00:20.202Z,9.31
2023-01-05T11:01:20.358Z,9.31
2023-01-05T11:02:20.313Z,9.34
2023-01-05T11:03:33.453Z,9.32
2023-01-05T11:04:34.226Z,9.36
2023-01-05T11:05:20.263Z,9.39
2023-01-05T11:06:20.150Z,9.40
2023-01-05T11:07:20.162Z,9.46
2023-01-05T11:08:20.133Z,9.47
2023-01-05T11:09:22.453Z,9.50
2023-01-05T11:10:20.113Z,9.50
2023-01-05T11:11:20.125Z,9.50
2023-01-05T11:12:20.095Z,9.55
2023-01-05T11:13:20.086Z,9.56
2023-01-05T11:14:20.071Z,9.58
2023-01-05T11:15:20.069Z,9.58
2023-01-05T11:16:20.201Z,9.56
2023-01-05T11:17:20.055Z,9.56
2023-01-05T11:18:20.026Z,9.59
2023-01-05T11:19:20.007Z,9.61
2023-01-05T11:20:19.986Z,9.62
2023-01-05T11:21:19.982Z,9.65
2023-01-05T11:22:20.003Z,9.66
2023-01-05T11:23:19.976Z,9.72
2023-01-05T11:24:19.970Z,9.76
2023-01-05T11:25:19.967Z,9.79
2023-01-05T11:26:19.983Z,9.82
2023-01-05T11:27:19.965Z,9.84
2023-01-05T11:28:19.983Z,9.89
2023-01-05T11:29:20.028Z,9.92
2023-01-05T11:30:19.929Z,9.92
2023-01-05T11:31:19.980Z,9.94
2023-01-05T11:32:19.897Z,9.94
2023-01-05T11:33:25.042Z,9.95
2023-01-05T11:34:19.875Z,9.95
2023-01-05T11:35:19.866Z,9.97
2023-01-05T11:36:19.885Z,9.97
2023-01-05T11:37:19.847Z,9.99
2023-01-05T11:38:19.870Z,9.99
2023-01-05T11:39:19.853Z,10.01
2023-01-05T11:40:19.811Z,10.02
2023-01-05T11:41:19.811Z,10.04
2023-01-05T11:42:24.926Z,10.05
2023-01-05T11:43:19.789Z,10.07
2023-01-05T11:44:19.811Z,10.07
2023-01-05T11:45:19.769Z,10.07
2023-01-05T11:46:19.822Z,10.07
2023-01-05T11:47:19.743Z,10.07
2023-01-05T11:48:19.796Z,10.09
2023-01-05T11:49:19.710Z,10.09
2023-01-05T11:50:19.716Z,10.09
2023-01-05T11:51:25.893Z,10.09
2023-01-05T11:52:19.702Z,10.09
2023-01-05T11:53:19.679Z,10.07
2023-01-05T11:54:19.665Z,10.07
2023-01-05T11:55:19.656Z,10.04
2023-01-05T11:56:19.683Z,10.02
2023-01-05T11:57:19.651Z,10.01
2023-01-05T11:58:19.677Z,9.99
2023-01-05T11:59:19.617Z,9.98
2023-01-05T12:00:19.635Z,9.97
2023-01-05T12:01:19.616Z,9.97
2023-01-05T12:02:19.633Z,9.98
2023-01-05T12:03:19.581Z,9.98
2023-01-05T12:04:19.660Z,9.98
2023-01-05T12:05:19.571Z,9.98
2023-01-05T12:06:19.541Z,9.98
2023-01-05T12:07:19.538Z,9.99
2023-01-05T12:08:19.664Z,10.01
2023-01-05T12:09:19.733Z,10.02
2023-01-05T12:10:19.519Z,10.02
2023-01-05T12:11:19.481Z,10.04
2023-01-05T12:12:19.481Z,10.05
2023-01-05T12:13:19.513Z,10.04
2023-01-05T12:14:19.501Z,10.04
2023-01-05T12:15:19.441Z,10.04
2023-01-05T12:16:19.510Z,10.07
2023-01-05T12:17:19.429Z,10.10
2023-01-05T12:18:19.409Z,10.10
2023-01-05T12:19:19.419Z,10.10
2023-01-05T12:20:19.442Z,10.12
2023-01-05T12:21:19.406Z,10.10
2023-01-05T12:22:19.382Z,10.09
2023-01-05T12:23:19.369Z,10.09
2023-01-05T12:24:19.370Z,10.09
2023-01-05T12:25:19.349Z,10.07
2023-01-05T12:26:19.358Z,10.10
2023-01-05T12:27:19.340Z,10.10
2023-01-05T12:28:35.506Z,10.07
2023-01-05T12:33:44.380Z,10.05
2023-01-05T12:34:11.401Z,10.05
2023-01-05T12:34:19.266Z,10.04
2023-01-05T12:35:19.257Z,10.02
2023-01-05T12:36:19.381Z,10.02
2023-01-05T12:37:19.235Z,10.02
2023-01-05T12:38:19.231Z,10.02
2023-01-05T12:39:19.226Z,10.02
2023-01-05T12:40:19.194Z,10.01
2023-01-05T12:41:19.191Z,10.04
2023-01-05T12:42:19.175Z,10.05
2023-01-05T12:43:19.413Z,10.05
2023-01-05T12:44:19.180Z,10.07
2023-01-05T12:45:19.159Z,10.02
2023-01-05T12:46:19.180Z,9.99
2023-01-05T12:47:19.160Z,9.99
2023-01-05T12:48:19.141Z,9.97
2023-01-05T12:49:19.149Z,9.94
2023-01-05T12:50:19.108Z,9.91
2023-01-05T12:51:19.096Z,9.89
2023-01-05T12:52:19.079Z,9.87
2023-01-05T12:53:19.102Z,9.86
2023-01-05T12:54:19.063Z,9.83
2023-01-05T12:55:19.049Z,9.79
2023-01-05T12:56:19.038Z,9.77
2023-01-05T12:57:19.060Z,9.73
2023-01-05T12:58:19.021Z,9.69
2023-01-05T12:59:19.028Z,9.69
2023-01-05T13:00:18.994Z,9.66
2023-01-05T13:01:19.104Z,9.64
2023-01-05T13:02:19.007Z,9.65
2023-01-05T13:03:18.964Z,9.64
2023-01-05T13:04:18.984Z,9.65
2023-01-05T13:05:18.954Z,9.65
2023-01-05T13:06:18.930Z,9.66
2023-01-05T13:07:18.936Z,9.69
2023-01-05T13:08:18.944Z,9.73
2023-01-05T13:09:18.939Z,9.72
2023-01-05T13:10:18.920Z,9.68
2023-01-05T13:11:18.963Z,9.68
2023-01-05T13:12:18.877Z,9.68
2023-01-05T13:13:18.890Z,9.66
2023-01-05T13:14:18.851Z,9.66
2023-01-05T13:15:18.847Z,9.66
2023-01-05T13:16:18.960Z,9.64
2023-01-05T13:17:18.840Z,9.62
2023-01-05T13:18:18.797Z,9.66
2023-01-05T13:19:18.789Z,9.68
2023-01-05T13:20:18.795Z,9.72
2023-01-05T13:21:18.787Z,9.74